CA-0257 weather

CLOSED Nanton (Green Farms) Airport
Alberta, Canada

Public forecast

Using degrees Celsius for public forecast. Weather courtesy of forecast.io.

Closest aviation weather report (METAR) to Nanton (Green Farms) Airport

Closest report is Calgary International Airport, 45.9 nm (85.0 km) NNW. Retrieved 2019/12/09 20:44 UTC (9 minutes ago):

CYYC 092044Z 08007KT 1SM R35L/P6000FT/D R29/P6000FT/N R35R/P6000FT/N -SN VV009 M07/M10 A3005 RMK SN8 SLP240

Closest aviation forecast (TAF) to Nanton (Green Farms) Airport

Closest forecast is Calgary International Airport, 45.9 nm (85.0 km) NNW. Retrieved 2019/12/09 21:53 UTC (0 seconds ago):

TAF CYYC 092038Z 0921/1018 04006KT 4SM -SN OVC040 TEMPO 0921/1002 11/2SM -SN SCT008 OVC015 BECMG 1000/1002 VRB03KT FM100200 22006KT P6SM FEW008 BKN030 TEMPO 1002/1007 3SM -SN SCT008 OVC015 FM100700 28005KT P6SM SCT020 TEMPO 1007/1012 BKN020 FM101200 30005KT P6SM FEW080 FM101600 31008KT P6SM BKN080 RMK NXT FCST BY 100000Z